Time;durP1;ratioP1;P1;durP2;ratioP2;P2;SDS_P1;SDS_P2;PMS_P1;PMS_P2;Temp;Humidity;BMP_temperature;BMP_pressure;BME280_temperature;BME280_humidity;BME280_pressure;Samples;Min_cycle;Max_cycle;Signal;HPM_P1;HPM_P2
2022/01/04 00:03:34;;;;;;;1999.90;999.90;;;;;;;10.59;89.39;99989.69;10417021;28;20627;-74
2022/01/04 00:08:36;;;;;;;1999.90;999.90;;;;;;;10.58;89.75;99974.63;10413584;28;20223;-74
2022/01/04 00:13:39;;;;;;;1999.90;999.90;;;;;;;10.68;89.85;99986.19;10417730;28;20671;-73
2022/01/04 00:18:41;;;;;;;1999.90;999.90;;;;;;;10.67;89.54;99957.81;10413769;28;20267;-74
2022/01/04 00:23:43;;;;;;;1999.90;999.90;;;;;;;10.62;89.03;99949.34;10417486;28;20743;-74
2022/01/04 00:28:46;;;;;;;1999.90;999.90;;;;;;;10.62;89.21;99944.84;10413187;28;20816;-74
2022/01/04 00:33:48;;;;;;;1999.90;999.90;;;;;;;10.63;89.35;99933.19;10417549;28;20244;-74
2022/01/04 00:38:49;;;;;;;1999.90;999.90;;;;;;;10.62;89.19;99923.47;10414153;28;20227;-74
2022/01/04 00:43:52;;;;;;;1999.90;999.90;;;;;;;10.63;88.92;99917.16;10416264;28;20214;-74
2022/01/04 00:49:14;;;;;;;1999.90;999.90;;;;;;;10.62;89.10;99911.97;10416589;28;20200;-74
2022/01/04 00:54:16;;;;;;;1999.90;999.90;;;;;;;10.56;89.50;99891.13;10419274;28;20215;-74
2022/01/04 00:59:20;;;;;;;1999.90;999.90;;;;;;;10.59;88.57;99898.88;10424685;28;20318;-74
2022/01/04 01:04:22;;;;;;;1999.90;999.90;;;;;;;10.48;88.82;99873.13;10422736;28;20228;-73
2022/01/04 01:09:28;;;;;;;1999.90;999.90;;;;;;;10.52;88.66;99882.53;10426632;28;20204;-74
2022/01/04 01:14:32;;;;;;;1999.90;999.90;;;;;;;10.48;89.23;99870.44;10429146;28;20334;-74
2022/01/04 01:19:36;;;;;;;1999.90;999.90;;;;;;;10.48;89.35;99857.09;10423440;28;20229;-74
2022/01/04 01:24:38;;;;;;;1999.90;999.90;;;;;;;10.54;88.79;99867.25;10430216;28;20208;-74
2022/01/04 01:29:41;;;;;;;1999.90;999.90;;;;;;;10.42;88.68;99845.13;10424639;28;20208;-74
2022/01/04 01:34:43;;;;;;;1999.90;999.90;;;;;;;10.30;88.32;99831.03;10423855;28;20849;-73
2022/01/04 01:39:45;;;;;;;1999.90;999.90;;;;;;;10.43;88.84;99846.81;10428101;28;20223;-73
2022/01/04 01:44:48;;;;;;;1999.90;999.90;;;;;;;10.39;88.80;99836.53;10424865;28;20204;-73
2022/01/04 01:49:50;;;;;;;1999.90;999.90;;;;;;;10.36;88.52;99828.78;10424477;28;20219;-74
2022/01/04 01:54:53;;;;;;;1302.93;923.87;;;;;;;10.33;88.68;99821.91;10429544;28;20258;-74
2022/01/04 01:59:57;;;;;;;1999.90;999.90;;;;;;;10.34;89.43;99818.28;10421439;28;20715;-74
2022/01/04 02:04:58;;;;;;;1774.27;974.40;;;;;;;10.35;89.11;99814.59;10420650;28;20231;-74
2022/01/04 02:10:03;;;;;;;1999.90;999.90;;;;;;;10.34;88.78;99799.59;10424039;28;20211;-74
2022/01/04 02:15:09;;;;;;;1999.90;999.90;;;;;;;10.35;88.95;99790.59;10422957;28;20439;-74
2022/01/04 02:20:13;;;;;;;1999.90;999.90;;;;;;;10.30;89.01;99774.09;10416813;28;20734;-73
2022/01/04 02:25:14;;;;;;;1999.90;999.90;;;;;;;10.32;88.55;99793.50;10426906;28;20249;-73
2022/01/04 02:30:18;;;;;;;1320.60;918.20;;;;;;;10.23;88.59;99765.78;10421482;28;20200;-73
2022/01/04 02:35:24;;;;;;;1999.90;999.90;;;;;;;10.28;88.45;99760.91;10420501;28;20361;-74
2022/01/04 02:40:26;;;;;;;1999.90;999.90;;;;;;;10.21;89.04;99743.75;10421515;28;20355;-74
2022/01/04 02:45:27;;;;;;;1999.90;999.90;;;;;;;10.27;88.96;99750.38;10420770;28;20659;-73
2022/01/04 02:50:30;;;;;;;1999.90;999.90;;;;;;;10.29;89.04;99749.25;10419104;28;20227;-73
2022/01/04 02:55:32;;;;;;;1999.90;999.90;;;;;;;10.16;89.23;99731.78;10417781;28;20234;-73
2022/01/04 03:00:34;;;;;;;1999.90;999.90;;;;;;;10.21;89.14;99735.72;10416467;28;20305;-73
2022/01/04 03:05:37;;;;;;;1999.90;999.90;;;;;;;10.23;89.26;99724.94;10415455;28;20257;-73
2022/01/04 03:10:38;;;;;;;1999.90;999.90;;;;;;;10.22;89.10;99720.56;10418854;28;20215;-73
2022/01/04 03:15:40;;;;;;;1762.53;964.97;;;;;;;10.22;89.61;99705.38;10420764;28;20240;-74
2022/01/04 03:20:43;;;;;;;1999.90;999.90;;;;;;;10.20;89.23;99685.16;10411570;28;20368;-74
2022/01/04 03:25:44;;;;;;;1286.67;899.63;;;;;;;10.19;89.29;99678.13;10420071;28;20257;-73
2022/01/04 03:30:46;;;;;;;1762.83;968.87;;;;;;;10.18;88.96;99669.28;10421748;28;21685;-73
2022/01/04 03:35:49;;;;;;;1783.17;980.43;;;;;;;10.20;89.42;99661.97;10414755;28;20236;-73
2022/01/04 03:40:51;;;;;;;1300.27;901.37;;;;;;;10.16;88.95;99639.22;10422566;28;20602;-74
2022/01/04 03:45:52;;;;;;;1317.93;912.03;;;;;;;10.16;89.29;99636.56;10422543;28;20773;-74
2022/01/04 03:50:55;;;;;;;1324.23;914.63;;;;;;;9.99;89.16;99613.22;10415389;28;20307;-75
2022/01/04 03:55:57;;;;;;;1767.53;972.33;;;;;;;10.11;89.02;99625.44;10417734;28;20347;-74
2022/01/04 04:00:59;;;;;;;1999.90;999.90;;;;;;;10.11;89.89;99625.44;10416867;28;20289;-74
2022/01/04 04:06:02;;;;;;;1999.90;999.90;;;;;;;10.10;90.32;99613.94;10413823;28;20212;-74
2022/01/04 04:11:04;;;;;;;1999.90;999.90;;;;;;;10.07;90.68;99608.03;10416669;28;20216;-74
2022/01/04 04:16:05;;;;;;;1999.90;999.90;;;;;;;10.12;90.63;99605.81;10417973;28;20250;-75
2022/01/04 04:21:08;;;;;;;1999.90;999.90;;;;;;;10.07;89.75;99600.88;10416805;28;20269;-74
2022/01/04 04:26:10;;;;;;;1999.90;999.90;;;;;;;9.98;90.16;99593.69;10414409;28;20911;-74
2022/01/04 04:31:12;;;;;;;1999.90;999.90;;;;;;;9.98;90.25;99600.84;10427743;28;20645;-75
2022/01/04 04:36:16;;;;;;;1999.90;999.90;;;;;;;9.74;90.95;99548.75;10425607;28;20212;-75
2022/01/04 04:41:17;;;;;;;1999.90;999.90;;;;;;;9.96;90.95;99576.16;10423042;28;20219;-74
2022/01/04 04:46:19;;;;;;;1999.90;999.90;;;;;;;9.87;90.80;99553.78;10424361;28;20227;-75
2022/01/04 04:51:22;;;;;;;1999.90;999.90;;;;;;;9.94;90.49;99561.13;10424931;28;20208;-75
2022/01/04 04:56:23;;;;;;;1999.90;999.90;;;;;;;9.93;90.60;99562.09;10423997;28;20249;-75
2022/01/04 05:01:25;;;;;;;1999.90;999.90;;;;;;;9.92;90.49;99562.25;10424765;28;20254;-74
2022/01/04 05:06:28;;;;;;;1999.90;999.90;;;;;;;9.87;90.93;99538.66;10425455;28;20262;-74
2022/01/04 05:11:30;;;;;;;1999.90;999.90;;;;;;;9.92;91.05;99543.56;10419031;28;20613;-75
2022/01/04 05:16:32;;;;;;;1999.90;999.90;;;;;;;9.93;90.84;99554.09;10422145;28;20234;-75
2022/01/04 05:21:35;;;;;;;1999.90;999.90;;;;;;;9.94;91.06;99552.28;10422004;28;20200;-75
2022/01/04 05:26:37;;;;;;;1999.90;999.90;;;;;;;9.64;91.10;99495.38;10419211;28;20266;-75
2022/01/04 05:31:39;;;;;;;1999.90;999.90;;;;;;;9.95;91.59;99529.97;10419862;28;20215;-75
2022/01/04 05:36:42;;;;;;;1999.90;999.90;;;;;;;9.90;91.47;99538.38;10425138;28;20566;-75
2022/01/04 05:41:43;;;;;;;1999.90;999.90;;;;;;;9.69;91.59;99498.47;10420611;28;20215;-75
2022/01/04 05:46:45;;;;;;;1999.90;999.90;;;;;;;9.90;91.41;99524.19;10424737;28;20211;-75
2022/01/04 05:51:48;;;;;;;1999.90;999.90;;;;;;;9.91;91.33;99529.41;10423033;28;20648;-75
2022/01/04 05:56:50;;;;;;;1999.90;999.90;;;;;;;9.84;90.84;99516.75;10419764;28;20631;-75
2022/01/04 06:01:51;;;;;;;1999.90;999.90;;;;;;;9.63;91.59;99474.22;10419132;28;20279;-74
2022/01/04 06:06:54;;;;;;;1999.90;999.90;;;;;;;9.68;91.42;99486.16;10425461;28;20563;-75
2022/01/04 06:12:00;;;;;;;1999.90;999.90;;;;;;;9.79;91.13;99492.31;10418855;28;20591;-74
2022/01/04 06:17:03;;;;;;;1999.90;999.90;;;;;;;9.75;91.76;99481.91;10420948;28;20234;-74
2022/01/04 06:22:06;;;;;;;1999.90;999.90;;;;;;;9.78;92.20;99507.47;10423360;28;20211;-75
2022/01/04 06:27:10;;;;;;;1999.90;999.90;;;;;;;9.72;91.51;99502.72;10417589;28;20203;-74
2022/01/04 06:32:13;;;;;;;1999.90;999.90;;;;;;;9.72;91.93;99484.88;10420356;28;20219;-74
2022/01/04 06:37:16;;;;;;;1999.90;999.90;;;;;;;9.73;92.02;99459.88;10419604;28;20307;-75
2022/01/04 06:42:18;;;;;;;1999.90;999.90;;;;;;;9.70;91.62;99451.31;10411205;28;20214;-76
2022/01/04 06:47:20;;;;;;;1999.90;999.90;;;;;;;9.77;92.08;99447.13;10420347;28;20204;-76
2022/01/04 06:52:23;;;;;;;1999.90;999.90;;;;;;;9.43;92.11;99409.38;10420191;28;20548;-75
2022/01/04 06:57:24;;;;;;;157.33;114.43;;;;;;;9.70;92.24;99444.19;10416853;28;20230;-75
2022/01/04 07:02:26;;;;;;;169.50;117.33;;;;;;;9.73;92.37;99443.06;10414711;28;20254;-76
2022/01/04 07:07:29;;;;;;;159.20;109.67;;;;;;;9.60;91.80;99415.84;10425070;28;20220;-75
2022/01/04 07:12:31;;;;;;;150.10;111.57;;;;;;;9.53;91.90;99399.53;10414626;28;20207;-75
2022/01/04 14:13:50;;;;;;;402.00;138.65;;;;;;;18.37;63.88;99611.06;10423662;27;1341992;-68
2022/01/04 14:19:06;;;;;;;22.55;19.27;;;;;;;18.42;64.48;99625.66;10474959;28;20594;-65
2022/01/04 14:24:39;;;;;;;1999.90;999.90;;;;;;;18.53;64.51;99637.00;10468617;28;20234;-66
2022/01/04 14:29:45;;;;;;;1999.90;834.67;;;;;;;18.58;64.18;99631.88;10436197;28;20847;-67
2022/01/04 14:34:46;;;;;;;34.10;31.00;;;;;;;18.85;63.47;99660.91;10423199;28;20228;-67
2022/01/04 14:39:48;;;;;;;49.20;39.50;;;;;;;19.01;62.49;99657.06;10423434;28;20290;-68
2022/01/04 14:44:51;;;;;;;21.33;19.50;;;;;;;19.02;62.27;99641.66;10421301;28;20214;-67
2022/01/04 14:49:53;;;;;;;14.18;13.18;;;;;;;19.20;61.83;99663.69;10420802;28;20309;-67
2022/01/04 14:54:55;;;;;;;11.15;10.43;;;;;;;19.22;61.40;99683.28;10423916;28;20208;-68
2022/01/04 15:00:01;;;;;;;20.97;19.47;;;;;;;19.12;61.18;99669.25;10426003;28;20208;-67
2022/01/04 15:05:03;;;;;;;8.68;7.93;;;;;;;19.30;60.75;99698.53;10434860;28;20731;-67
2022/01/04 15:10:06;;;;;;;4.97;3.67;;;;;;;19.31;59.84;99702.94;10433370;28;20288;-67
2022/01/04 15:15:09;;;;;;;3.20;2.78;;;;;;;19.29;59.61;99712.28;10428267;28;20212;-72
2022/01/04 15:20:12;;;;;;;5.20;3.60;;;;;;;19.33;59.91;99714.41;10428977;28;20346;-71
2022/01/04 15:25:14;;;;;;;1.90;1.67;;;;;;;19.31;59.83;99716.50;10394499;28;20754;-72
2022/01/04 15:30:17;;;;;;;6.07;4.47;;;;;;;19.32;59.56;99722.72;10388792;28;20228;-71
2022/01/04 15:35:19;;;;;;;0.88;0.77;;;;;;;19.32;59.21;99728.16;10395677;28;20239;-72
2022/01/04 15:40:21;;;;;;;;;;;;;;;19.35;58.95;99739.44;10402223;28;20204;-72
2022/01/04 15:45:23;;;;;;;;;;;;;;;19.41;58.76;99740.53;10392597;28;20047;-72
2022/01/04 15:50:25;;;;;;;33.42;30.13;;;;;;;19.43;58.82;99735.75;10393051;28;20508;-72
2022/01/04 15:55:27;;;;;;;2.15;1.58;;;;;;;19.52;58.58;99748.13;10400901;28;20714;-72
2022/01/04 16:00:30;;;;;;;;;;;;;;;19.52;58.01;99771.66;10400078;28;20234;-72
2022/01/04 16:05:32;;;;;;;1999.90;999.90;;;;;;;19.42;58.24;99753.00;10394434;28;20537;-72
2022/01/04 16:10:35;;;;;;;14.82;13.82;;;;;;;19.55;57.86;99755.88;10399208;28;20228;-72
2022/01/04 16:15:46;;;;;;;18.85;17.85;;;;;;;19.55;57.25;99764.00;10400855;28;20207;-71
2022/01/04 16:26:07;;;;;;;5.47;4.97;;;;;;;19.25;57.50;99766.84;10389788;28;20224;-67
2022/01/04 16:31:10;;;;;;;15.02;13.88;;;;;;;19.29;57.56;99779.97;10398007;28;20304;-67
2022/01/04 16:36:12;;;;;;;23.90;22.40;;;;;;;19.21;57.51;99781.81;10427994;28;21176;-67
2022/01/04 16:41:13;;;;;;;24.75;23.00;;;;;;;19.11;57.88;99785.84;10434353;28;20243;-67
2022/01/04 16:46:16;;;;;;;21.20;19.77;;;;;;;18.99;58.17;99785.53;10434526;28;20211;-68
2022/01/04 16:51:18;;;;;;;20.88;19.50;;;;;;;18.94;58.12;99796.91;10432502;28;20224;-67
2022/01/04 16:56:20;;;;;;;2.17;1.77;;;;;;;18.91;58.22;99802.72;10438881;28;20215;-67
2022/01/04 17:01:26;;;;;;;3.30;2.60;;;;;;;18.85;58.25;99793.50;10435297;28;20231;-67
2022/01/04 17:06:27;;;;;;;3.20;2.63;;;;;;;18.91;58.15;99805.44;10431315;28;20781;-68
2022/01/04 17:11:35;;;;;;;2.85;2.22;;;;;;;18.85;58.00;99807.03;10434885;28;20309;-68
2022/01/04 17:16:38;;;;;;;3.53;2.78;;;;;;;18.86;57.78;99805.16;10443695;28;20199;-68
2022/01/04 17:21:43;;;;;;;24.65;23.10;;;;;;;18.81;57.62;99794.03;10430101;28;21251;-67
2022/01/04 17:26:45;;;;;;;20.73;19.58;;;;;;;18.81;57.95;99803.00;10438854;28;20219;-67
2022/01/04 17:31:48;;;;;;;2.67;2.25;;;;;;;18.78;57.72;99805.19;10439081;28;20227;-68
2022/01/04 17:36:51;;;;;;;24.08;22.27;;;;;;;18.65;57.83;99778.84;10430008;28;20239;-67
2022/01/04 17:41:52;;;;;;;6.55;5.47;;;;;;;18.77;57.66;99785.44;10431393;28;20869;-67
2022/01/04 17:46:56;;;;;;;20.73;19.53;;;;;;;18.82;57.53;99801.16;10438285;28;20289;-67
2022/01/04 17:51:57;;;;;;;20.25;18.90;;;;;;;18.81;57.57;99794.03;10430286;28;20269;-67
2022/01/04 17:56:59;;;;;;;11.65;10.85;;;;;;;18.64;57.62;99763.63;10431030;28;20215;-68
2022/01/04 18:02:02;;;;;;;24.90;23.23;;;;;;;18.72;57.67;99763.50;10431612;28;20238;-67
2022/01/04 18:07:04;;;;;;;18.75;17.77;;;;;;;18.53;57.52;99721.66;10425115;28;20355;-69
2022/01/04 18:12:09;;;;;;;2.35;2.15;;;;;;;18.78;57.35;99772.72;10421435;28;20326;-69
2022/01/04 18:17:12;;;;;;;2.20;1.90;;;;;;;18.89;57.45;99790.38;10326341;28;20231;-70
2022/01/04 18:22:13;;;;;;;2.88;2.50;;;;;;;18.90;57.60;99773.97;10414844;28;20238;-69
2022/01/04 18:27:15;;;;;;;2.05;1.80;;;;;;;18.88;57.61;99791.44;10431014;28;20265;-69
2022/01/04 18:32:18;;;;;;;6.22;5.68;;;;;;;18.90;57.49;99792.91;10435626;28;20247;-69
2022/01/04 18:37:21;;;;;;;1.25;1.15;;;;;;;18.84;57.81;99793.69;10432086;28;20207;-68
2022/01/04 18:42:23;;;;;;;2.63;2.28;;;;;;;18.96;57.45;99812.97;10430412;28;20208;-69
2022/01/04 18:47:26;;;;;;;3.10;2.50;;;;;;;18.98;57.52;99813.59;10437763;28;20281;-68
2022/01/04 18:52:28;;;;;;;2.70;2.33;;;;;;;18.99;57.62;99824.25;10428406;28;20232;-65
2022/01/04 18:57:29;;;;;;;4.05;3.38;;;;;;;19.01;57.61;99840.31;10434029;28;20215;-66
2022/01/04 19:02:32;;;;;;;2.35;2.15;;;;;;;18.97;57.56;99837.13;10443813;28;20234;-65
2022/01/04 19:07:38;;;;;;;3.95;3.20;;;;;;;18.85;57.55;99825.09;10436609;28;20289;-66
2022/01/04 19:12:40;;;;;;;1.58;1.35;;;;;;;19.02;57.71;99845.53;10435178;28;20234;-67
2022/01/04 19:17:43;;;;;;;2.70;2.33;;;;;;;18.99;57.47;99851.31;10438261;28;20297;-67
2022/01/04 19:22:45;;;;;;;0.70;0.68;;;;;;;19.02;57.66;99847.38;10438607;28;20325;-66
2022/01/04 19:27:47;;;;;;;2.90;2.53;;;;;;;19.01;57.41;99843.84;10442162;28;20214;-66
2022/01/04 19:38:38;;;;;;;4.13;3.72;;;;;;;19.10;57.29;99846.41;10575076;27;20305;-64
2022/01/04 19:43:41;;;;;;;0.93;0.82;;;;;;;18.98;57.13;99830.69;10538528;28;20213;-65
2022/01/04 19:48:42;;;;;;;4.05;3.45;;;;;;;19.04;57.28;99845.31;10543932;28;20217;-64
2022/01/04 19:53:46;;;;;;;2.08;1.92;;;;;;;19.13;57.18;99852.28;10536397;28;20210;-68
2022/01/04 19:58:50;;;;;;;5.07;3.92;;;;;;;19.15;57.06;99852.13;10539668;28;20671;-69
2022/01/04 20:03:52;;;;;;;2.67;2.33;;;;;;;19.14;56.92;99845.88;10500953;27;20241;-68
2022/01/04 20:08:55;;;;;;;;;;;;;;;19.13;56.96;99851.47;10490348;28;20312;-68
2022/01/04 20:13:57;;;;;;;6.28;4.50;;;;;;;19.16;56.94;99851.94;10490276;28;20454;-68
2022/01/04 20:18:58;;;;;;;42.65;38.05;;;;;;;19.16;56.60;99860.06;10487599;28;20357;-69
2022/01/04 20:24:01;;;;;;;28.25;26.25;;;;;;;19.11;56.72;99867.91;10488238;28;20210;-68
2022/01/04 20:29:04;;;;;;;1.55;1.38;;;;;;;18.97;56.69;99842.53;10487825;28;20280;-68
2022/01/04 20:34:05;;;;;;;5.43;4.25;;;;;;;19.02;56.62;99866.31;10489652;28;20246;-67
2022/01/04 20:39:10;;;;;;;3.75;3.03;;;;;;;18.97;56.65;99869.59;10490880;28;20215;-68
2022/01/04 20:44:11;;;;;;;4.38;3.45;;;;;;;18.95;56.63;99873.50;10487720;28;20209;-68
2022/01/04 20:49:13;;;;;;;1.10;0.90;;;;;;;18.84;56.78;99864.88;10463257;28;20704;-68
2022/01/04 20:54:16;;;;;;;3.97;3.60;;;;;;;18.90;56.92;99873.25;10461554;28;20231;-69
2022/01/04 20:59:18;;;;;;;;;;;;;;;18.90;56.85;99889.50;10456397;28;20754;-68
2022/01/04 21:04:19;;;;;;;;;;;;;;;18.89;57.20;99885.94;10459228;28;19928;-69
2022/01/04 21:09:23;;;;;;;;;;;;;;;18.91;57.17;99889.31;10460697;28;19936;-69
2022/01/04 21:14:24;;;;;;;;;;;;;;;18.93;56.80;99889.09;10456153;28;19940;-68
2022/01/04 21:19:25;;;;;;;;;;;;;;;18.94;56.69;99891.63;10461187;28;19955;-68
2022/01/04 21:24:28;;;;;;;;;;;;;;;18.97;56.91;99901.25;10463968;28;19931;-68
2022/01/04 21:29:30;;;;;;;;;;;;;;;18.99;56.61;99915.44;10449886;28;20387;-69
2022/01/04 21:34:31;;;;;;;;;;;;;;;19.00;56.75;99923.34;10451853;28;19971;-67
2022/01/04 21:39:34;;;;;;;;;;;;;;;19.02;56.58;99926.75;10458844;28;19931;-68
2022/01/04 21:44:36;;;;;;;;;;;;;;;18.99;56.44;99924.38;10451544;28;19977;-69
2022/01/04 21:49:38;;;;;;;;;;;;;;;18.99;56.51;99937.09;10456246;28;19932;-69
2022/01/04 21:54:40;;;;;;;;;;;;;;;18.99;56.24;99939.81;10460102;28;19931;-68
2022/01/04 21:59:42;;;;;;;;;;;;;;;18.97;56.06;99934.56;10455178;28;19924;-69
2022/01/04 22:04:43;;;;;;;;;;;;;;;18.97;56.17;99933.75;10452306;28;19982;-68
2022/01/04 22:09:46;;;;;;;;;;;;;;;18.95;56.18;99947.44;10453962;28;19928;-68
2022/01/04 22:14:47;;;;;;;;;;;;;;;18.96;55.83;99951.81;10452071;28;19968;-69
2022/01/04 22:19:49;;;;;;;;;;;;;;;18.94;55.99;99944.94;10457061;28;20033;-68
2022/01/04 22:24:54;;;;;;;;;;;;;;;18.92;56.03;99961.34;10452652;28;19967;-68
2022/01/04 22:29:56;;;;;;;;;;;;;;;18.93;55.88;99965.75;10453032;28;20008;-68
2022/01/04 22:34:58;;;;;;;;;;;;;;;18.92;55.76;99966.75;10458853;28;19927;-69
2022/01/04 22:40:01;;;;;;;;;;;;;;;18.92;55.88;99974.03;10454529;28;20402;-68
2022/01/04 22:45:03;;;;;;;;;;;;;;;18.91;55.40;99970.50;10454717;28;20384;-68
2022/01/04 22:50:06;;;;;;;;;;;;;;;18.92;55.54;99982.16;10457515;28;19924;-68
2022/01/04 22:55:09;;;;;;;;;;;;;;;18.91;55.53;99980.47;10450934;28;19929;-67
2022/01/04 23:00:17;;;;;;;;;;;;;;;18.90;55.32;99985.06;10453788;28;20573;-68
2022/01/04 23:05:19;;;;;;;;;;;;;;;18.90;55.32;99993.19;10453932;28;20066;-67
2022/01/04 23:10:23;;;;;;;;;;;;;;;18.90;55.22;99997.75;10451809;28;20376;-68
2022/01/04 23:15:24;;;;;;;;;;;;;;;18.90;55.41;100000.47;10453697;28;20424;-68
2022/01/04 23:20:26;;;;;;;;;;;;;;;18.89;55.11;99987.94;10459732;28;19928;-69
2022/01/04 23:25:28;;;;;;;;;;;;;;;18.86;55.16;100000.81;10456847;28;19928;-68
2022/01/04 23:30:30;;;;;;;;;;;;;;;18.85;55.20;99999.16;10456109;28;19973;-68
2022/01/04 23:35:32;;;;;;;;;;;;;;;18.85;55.31;100001.88;10455166;28;20057;-67
2022/01/04 23:40:35;;;;;;;;;;;;;;;18.85;55.40;100001.00;10456460;28;20020;-69
2022/01/04 23:45:36;;;;;;;;;;;;;;;18.82;55.35;100007.63;10456595;28;20009;-68
2022/01/04 23:50:38;;;;;;;;;;;;;;;18.82;55.41;100012.22;10455910;28;19925;-68
2022/01/04 23:55:41;;;;;;;;;;;;;;;18.81;55.27;100011.34;10458080;28;19928;-69
